Time;durP1;ratioP1;P1;durP2;ratioP2;P2;SDS_P1;SDS_P2;PMS_P1;PMS_P2;Temp;Humidity;BMP_temperature;BMP_pressure;BME280_temperature;BME280_humidity;BME280_pressure;Samples;Min_cycle;Max_cycle;Signal;HPM_P1;HPM_P2
2023/07/12 00:00:35;;;;;;;2.65;1.50;;;;;;;24.38;56.11;98996.34;5049810;28;20045;-76
2023/07/12 00:03:01;;;;;;;2.15;1.13;;;;;;;24.32;56.11;98998.81;5050949;28;20052;-75
2023/07/12 00:05:29;;;;;;;3.63;1.10;;;;;;;24.24;56.46;99007.03;5051504;28;20087;-76
2023/07/12 00:07:56;;;;;;;2.63;1.00;;;;;;;24.18;56.58;99011.31;5051552;28;20055;-75
2023/07/12 00:10:32;;;;;;;1.00;0.90;;;;;;;24.06;56.45;99075.50;5034237;28;20045;-73
2023/07/12 00:12:58;;;;;;;1.88;1.13;;;;;;;24.01;56.24;99115.59;5036858;28;20049;-74
2023/07/12 00:15:33;;;;;;;2.40;1.13;;;;;;;23.88;57.30;99161.16;5030285;28;20160;-74
2023/07/12 00:17:59;;;;;;;3.03;1.30;;;;;;;23.79;57.13;99193.50;5030904;28;20053;-74
2023/07/12 00:20:33;;;;;;;6.30;2.42;;;;;;;23.59;58.73;99109.97;5031207;28;20089;-77
2023/07/12 00:23:01;;;;;;;7.80;2.05;;;;;;;23.43;58.16;99043.84;5042822;28;20492;-76
2023/07/12 00:25:30;;;;;;;5.80;2.80;;;;;;;23.23;58.77;99055.19;5050783;28;20094;-75
2023/07/12 00:27:58;;;;;;;4.05;1.95;;;;;;;23.03;59.34;99053.06;5032527;28;20564;-75
2023/07/12 00:30:31;;;;;;;2.50;1.50;;;;;;;22.86;60.64;99078.44;5028412;28;20057;-75
2023/07/12 00:33:03;;;;;;;8.88;1.63;;;;;;;22.74;60.35;99086.94;5013496;28;20111;-78
2023/07/12 00:35:32;;;;;;;2.50;1.70;;;;;;;22.63;60.93;99090.91;5030989;28;20091;-75
2023/07/12 00:38:00;;;;;;;2.85;1.50;;;;;;;22.56;61.41;99081.09;5030865;28;20407;-75
2023/07/12 00:40:58;;;;;;;5.55;1.70;;;;;;;22.47;62.67;99081.13;5013983;28;20144;-78
2023/07/12 00:43:34;;;;;;;2.10;1.48;;;;;;;22.47;63.28;99072.28;5050665;28;20049;-75
2023/07/12 00:46:04;;;;;;;1.80;1.63;;;;;;;22.47;62.93;99057.00;5032573;28;20110;-75
2023/07/12 00:48:31;;;;;;;1.73;1.58;;;;;;;22.48;62.68;99036.38;5050576;28;20537;-77
2023/07/12 00:50:58;;;;;;;2.90;1.42;;;;;;;22.49;63.01;99025.47;5048044;28;20057;-76
2023/07/12 00:53:30;;;;;;;3.75;1.58;;;;;;;22.50;63.87;99019.09;5013063;28;20041;-75
2023/07/12 00:56:04;;;;;;;3.10;1.48;;;;;;;22.53;63.60;98996.44;5030706;28;20060;-74
2023/07/12 00:58:36;;;;;;;2.47;1.50;;;;;;;22.54;63.95;98998.09;5012705;28;20137;-74
2023/07/12 01:01:04;;;;;;;2.63;1.30;;;;;;;22.57;63.34;98980.84;5013279;28;20122;-75
2023/07/12 01:03:34;;;;;;;1.83;1.25;;;;;;;22.59;64.05;98984.16;5012831;28;20502;-75
2023/07/12 01:06:01;;;;;;;1.75;1.25;;;;;;;22.63;63.89;98980.09;5030245;28;20049;-75
2023/07/12 01:08:29;;;;;;;1.30;1.10;;;;;;;22.67;63.54;98976.03;5012861;28;20053;-74
2023/07/12 01:10:59;;;;;;;1.83;1.13;;;;;;;22.69;63.63;98992.75;5012974;28;20092;-73
2023/07/12 01:13:28;;;;;;;1.10;0.98;;;;;;;22.72;63.63;99010.38;5046148;28;20084;-75
2023/07/12 01:15:58;;;;;;;2.70;1.40;;;;;;;22.73;63.59;99028.94;5046961;28;20111;-75
2023/07/12 01:18:26;;;;;;;2.03;1.30;;;;;;;22.72;63.25;99019.22;5030386;28;20093;-76
2023/07/12 01:21:17;;;;;;;1.08;1.00;;;;;;;22.63;63.99;99034.59;5013052;28;20501;-73
2023/07/12 01:23:44;;;;;;;1.27;1.10;;;;;;;22.65;63.88;99027.19;5046009;28;20071;-78
2023/07/12 01:26:18;;;;;;;2.67;1.15;;;;;;;22.61;64.24;99011.66;5051993;28;20102;-76
2023/07/12 01:28:49;;;;;;;1.55;1.20;;;;;;;22.60;64.61;99015.34;5036347;28;20118;-74
2023/07/12 01:31:16;;;;;;;2.55;1.40;;;;;;;22.61;64.54;99006.28;5036655;28;20059;-76
2023/07/12 01:33:43;;;;;;;1.40;1.30;;;;;;;22.61;64.54;99012.47;5041174;28;20064;-75
2023/07/12 01:36:10;;;;;;;3.70;2.00;;;;;;;22.61;64.73;99015.16;5034106;28;20085;-79
2023/07/12 01:38:37;;;;;;;4.43;1.60;;;;;;;22.62;64.88;99016.81;5033986;28;20054;-76
2023/07/12 01:41:04;;;;;;;1.83;1.60;;;;;;;22.64;65.52;99001.38;5034015;28;20057;-75
2023/07/12 01:43:32;;;;;;;2.35;1.65;;;;;;;22.67;64.77;98976.03;5041830;28;20065;-75
2023/07/12 01:45:59;;;;;;;2.30;1.35;;;;;;;22.68;64.91;98966.97;5053758;28;20064;-75
2023/07/12 01:48:26;;;;;;;1.67;1.38;;;;;;;22.70;64.98;98980.19;5036074;28;20045;-77
2023/07/12 01:50:52;;;;;;;2.03;1.20;;;;;;;22.71;65.61;98955.03;5053905;28;20045;-75
2023/07/12 01:53:19;;;;;;;2.50;1.55;;;;;;;22.72;65.39;98956.72;5052062;28;20132;-75
2023/07/12 01:55:46;;;;;;;2.25;1.20;;;;;;;22.73;65.07;98971.78;5053181;28;20060;-77
2023/07/12 01:58:12;;;;;;;3.35;1.20;;;;;;;22.72;65.20;98970.94;5053272;28;20545;-76
2023/07/12 02:00:39;;;;;;;2.22;1.40;;;;;;;22.72;64.80;98951.34;5051827;28;20524;-74
2023/07/12 02:03:06;;;;;;;1.63;1.27;;;;;;;22.71;64.90;98936.25;5035994;28;20049;-75
2023/07/12 02:05:33;;;;;;;1.88;1.27;;;;;;;22.70;65.44;98926.53;5053424;28;20099;-75
2023/07/12 02:08:00;;;;;;;3.22;1.58;;;;;;;22.69;65.66;98930.25;5053329;28;20087;-73
2023/07/12 02:10:28;;;;;;;3.95;1.50;;;;;;;22.70;65.50;98951.53;5033838;28;20516;-75
2023/07/12 02:12:54;;;;;;;1.60;1.30;;;;;;;22.70;65.23;98969.47;5053161;28;20069;-75
2023/07/12 02:15:21;;;;;;;2.47;1.25;;;;;;;22.72;65.06;99024.59;5035379;28;20563;-74
2023/07/12 02:17:48;;;;;;;2.75;1.30;;;;;;;22.68;65.08;99023.28;5053211;28;20095;-77
2023/07/12 02:20:14;;;;;;;3.78;1.25;;;;;;;22.65;64.71;99010.25;5052092;28;20045;-75
2023/07/12 02:22:43;;;;;;;4.07;1.50;;;;;;;22.60;64.94;98999.25;5033209;28;20089;-78
2023/07/12 02:25:11;;;;;;;3.90;1.23;;;;;;;22.52;64.99;99033.16;5015382;28;20140;-74
2023/07/12 02:27:39;;;;;;;4.07;1.35;;;;;;;22.46;65.30;99044.59;5032962;28;20111;-76
2023/07/12 02:30:09;;;;;;;3.67;1.85;;;;;;;22.39;65.80;99083.91;5037423;28;20448;-75
2023/07/12 02:32:36;;;;;;;1.45;1.25;;;;;;;22.33;65.66;99081.94;5053214;28;20484;-75
2023/07/12 02:35:03;;;;;;;2.60;1.45;;;;;;;22.27;65.91;99067.41;5052866;28;20063;-75
2023/07/12 02:37:31;;;;;;;2.15;1.55;;;;;;;22.21;66.04;99063.59;5052231;28;20048;-80
2023/07/12 02:39:57;;;;;;;2.17;1.33;;;;;;;22.15;66.27;99064.34;5052321;28;20049;-75
2023/07/12 02:42:24;;;;;;;3.28;1.50;;;;;;;22.08;66.64;99060.69;5030985;28;20489;-76
2023/07/12 02:44:51;;;;;;;2.08;1.63;;;;;;;22.02;66.63;99070.31;5015217;28;20128;-77
2023/07/12 02:47:17;;;;;;;2.75;1.65;;;;;;;21.96;66.94;99077.22;5032732;28;20050;-76
2023/07/12 02:49:44;;;;;;;5.10;1.75;;;;;;;21.90;67.05;99091.31;5032900;28;20068;-75
2023/07/12 02:52:10;;;;;;;4.88;1.70;;;;;;;21.85;67.08;99096.38;5048357;28;20076;-74
2023/07/12 02:54:37;;;;;;;2.45;1.60;;;;;;;21.80;67.34;99083.53;5053047;28;20108;-74
2023/07/12 02:57:04;;;;;;;2.85;1.80;;;;;;;21.74;67.42;99085.06;5052285;28;20475;-74
2023/07/12 02:59:31;;;;;;;2.85;2.08;;;;;;;21.70;67.75;99093.59;5052467;28;20118;-75
2023/07/12 03:01:57;;;;;;;4.10;1.95;;;;;;;21.66;67.74;99084.22;5040869;28;20502;-77
2023/07/12 03:04:24;;;;;;;2.95;2.00;;;;;;;21.63;67.87;99076.56;5032586;28;20057;-75
2023/07/12 03:06:51;;;;;;;4.82;2.25;;;;;;;21.61;68.19;99068.72;5032101;28;20064;-74
2023/07/12 03:09:18;;;;;;;4.32;2.10;;;;;;;21.59;67.94;99068.03;5032571;28;20041;-74
2023/07/12 03:11:46;;;;;;;2.20;1.90;;;;;;;21.57;67.98;99091.50;5038194;28;20091;-74
2023/07/12 03:14:17;;;;;;;3.60;1.92;;;;;;;21.53;68.27;99084.81;5052358;28;20144;-74
2023/07/12 03:16:44;;;;;;;4.45;2.13;;;;;;;21.52;68.09;99081.31;5023411;28;20053;-75
2023/07/12 03:19:12;;;;;;;5.35;2.20;;;;;;;21.50;68.00;99106.59;5032125;28;20057;-77
2023/07/12 03:21:39;;;;;;;4.07;2.00;;;;;;;21.47;68.41;99116.66;5016310;28;20486;-76
2023/07/12 03:24:06;;;;;;;3.75;2.30;;;;;;;21.45;68.50;99124.00;5052224;28;20045;-76
2023/07/12 03:26:33;;;;;;;2.85;1.95;;;;;;;21.47;68.57;99142.59;5033963;28;20068;-83
2023/07/12 03:29:00;;;;;;;4.43;2.10;;;;;;;21.47;68.58;99159.50;5051931;28;20048;-77
2023/07/12 03:31:30;;;;;;;2.13;1.90;;;;;;;21.46;68.59;99149.75;5051900;28;20111;-79
2023/07/12 03:33:59;;;;;;;3.42;2.30;;;;;;;21.46;68.50;99122.19;5032969;28;20086;-78
2023/07/12 03:36:30;;;;;;;4.85;1.95;;;;;;;21.43;68.58;99136.75;5032183;28;20056;-77
2023/07/12 03:38:59;;;;;;;3.50;2.47;;;;;;;21.42;68.60;99163.69;5031382;28;20544;-80
2023/07/12 03:41:26;;;;;;;3.30;2.50;;;;;;;21.40;68.51;99179.06;5031957;28;20053;-76
2023/07/12 03:43:53;;;;;;;3.63;2.28;;;;;;;21.37;68.44;99158.84;5029098;28;20076;-80
2023/07/12 03:46:20;;;;;;;2.83;2.45;;;;;;;21.34;68.50;99173.41;5051513;28;20049;-76
2023/07/12 03:48:46;;;;;;;4.63;2.63;;;;;;;21.31;68.85;99167.56;5050998;28;20471;-76
2023/07/12 03:51:14;;;;;;;2.97;2.67;;;;;;;21.29;68.68;99157.03;5051179;28;20382;-78
2023/07/12 03:53:41;;;;;;;5.60;3.15;;;;;;;21.27;68.84;99168.94;5040640;28;20077;-78
2023/07/12 03:56:09;;;;;;;7.25;3.03;;;;;;;21.23;68.96;99176.44;5031281;28;20064;-77
2023/07/12 03:58:39;;;;;;;5.35;2.55;;;;;;;21.20;69.24;99169.59;5031293;28;20049;-77
2023/07/12 04:01:08;;;;;;;7.38;2.50;;;;;;;21.18;68.65;99178.81;5031339;28;20099;-78
2023/07/12 04:03:36;;;;;;;5.15;2.95;;;;;;;21.16;68.76;99184.31;5032554;28;20049;-77
2023/07/12 04:06:04;;;;;;;5.22;2.65;;;;;;;21.13;68.53;99173.97;5022448;28;20045;-79
2023/07/12 04:08:31;;;;;;;5.03;2.67;;;;;;;21.11;68.68;99154.56;5033383;28;20140;-79
2023/07/12 04:10:58;;;;;;;3.40;2.70;;;;;;;21.10;68.74;99131.50;5051072;28;20076;-75
2023/07/12 04:13:25;;;;;;;4.07;2.63;;;;;;;21.09;69.21;99113.78;5047758;28;20046;-77
2023/07/12 04:15:54;;;;;;;6.85;3.03;;;;;;;21.10;69.61;99120.81;5031050;28;20049;-76
2023/07/12 04:18:22;;;;;;;4.30;2.22;;;;;;;21.12;69.08;99118.78;5013524;28;20049;-78
2023/07/12 04:20:49;;;;;;;3.58;2.47;;;;;;;21.14;69.10;99118.59;5030973;28;20053;-77
2023/07/12 04:23:16;;;;;;;6.40;2.47;;;;;;;21.15;68.70;99123.78;5032389;28;20037;-75
2023/07/12 04:25:42;;;;;;;4.32;2.50;;;;;;;21.14;68.27;99111.41;5041534;28;20523;-76
2023/07/12 04:28:09;;;;;;;5.72;2.50;;;;;;;21.14;68.15;99110.56;5050630;28;20052;-77
2023/07/12 04:30:36;;;;;;;3.08;2.25;;;;;;;21.11;68.16;99102.91;5050963;28;20531;-76
2023/07/12 04:33:03;;;;;;;4.93;2.58;;;;;;;21.09;68.47;99114.59;5030571;28;20055;-78
2023/07/12 04:35:30;;;;;;;5.15;2.70;;;;;;;21.07;68.09;99113.09;5030734;28;20057;-78
2023/07/12 04:37:57;;;;;;;3.05;2.17;;;;;;;21.05;68.15;99129.31;5030628;28;20049;-80
2023/07/12 04:40:24;;;;;;;5.53;2.50;;;;;;;21.03;68.37;99130.50;5013232;28;20050;-77
2023/07/12 04:42:50;;;;;;;5.88;2.80;;;;;;;21.02;68.69;99129.69;5030955;28;20107;-77
2023/07/12 04:45:17;;;;;;;4.43;2.38;;;;;;;21.00;68.82;99158.44;5048252;28;20087;-75
2023/07/12 04:47:44;;;;;;;4.53;2.35;;;;;;;21.01;68.75;99164.66;5050371;28;20088;-79
2023/07/12 04:50:11;;;;;;;3.95;2.05;;;;;;;21.00;68.49;99136.22;5050607;28;20057;-77
2023/07/12 04:52:38;;;;;;;3.17;2.47;;;;;;;20.99;68.84;99113.13;5033127;28;20049;-77
2023/07/12 04:55:20;;;;;;;3.20;1.98;;;;;;;20.93;67.40;99125.38;5048517;28;20128;-77
2023/07/12 04:57:46;;;;;;;3.05;2.00;;;;;;;20.95;67.30;99134.03;5050129;28;20049;-82
2023/07/12 05:00:13;;;;;;;5.40;2.20;;;;;;;20.91;67.01;99119.34;5036887;28;20057;-79
2023/07/12 05:02:41;;;;;;;4.63;1.92;;;;;;;20.87;66.85;99121.53;5030686;28;20089;-76
2023/07/12 05:05:07;;;;;;;6.63;2.03;;;;;;;20.82;66.93;99126.53;5030497;28;20065;-75
2023/07/12 05:07:34;;;;;;;3.63;1.85;;;;;;;20.78;67.22;99128.69;5030210;28;20069;-77
2023/07/12 05:10:03;;;;;;;3.38;1.85;;;;;;;20.75;67.13;99123.69;5038064;28;20044;-75
2023/07/12 05:12:30;;;;;;;4.32;2.22;;;;;;;20.74;67.16;99137.25;5050684;28;20053;-76
2023/07/12 05:14:56;;;;;;;4.90;1.90;;;;;;;20.73;67.04;99154.28;5050199;28;20049;-76
2023/07/12 05:17:23;;;;;;;3.78;1.83;;;;;;;20.70;67.13;99148.28;5050183;28;20079;-77
2023/07/12 05:19:50;;;;;;;4.32;1.88;;;;;;;20.68;66.57;99152.13;5046288;28;20050;-78
2023/07/12 05:22:16;;;;;;;4.13;2.10;;;;;;;20.65;66.76;99150.63;5030165;28;20060;-76
2023/07/12 05:24:43;;;;;;;5.03;2.13;;;;;;;20.62;66.60;99171.50;5030436;28;20057;-76
2023/07/12 05:27:10;;;;;;;5.22;2.67;;;;;;;20.58;66.81;99176.34;5030100;28;20141;-76
2023/07/12 05:29:37;;;;;;;5.05;2.35;;;;;;;20.53;66.41;99163.47;5030223;28;20066;-79
2023/07/12 05:32:04;;;;;;;4.38;1.83;;;;;;;20.49;66.45;99172.00;5028366;28;20052;-78
2023/07/12 05:34:31;;;;;;;5.57;2.28;;;;;;;20.47;67.20;99166.81;5036023;28;20433;-82
2023/07/12 05:36:57;;;;;;;6.25;2.35;;;;;;;20.44;67.45;99162.66;5049632;28;20056;-75
2023/07/12 05:39:24;;;;;;;6.25;2.38;;;;;;;20.44;67.55;99165.31;5050115;28;20052;-78
2023/07/12 05:41:51;;;;;;;4.88;2.28;;;;;;;20.46;67.37;99161.63;5035280;28;20060;-78
2023/07/12 05:44:18;;;;;;;5.28;2.13;;;;;;;20.46;67.64;99156.28;5012717;28;20049;-75
2023/07/12 05:46:44;;;;;;;4.43;2.20;;;;;;;20.48;67.65;99173.84;5029708;28;20383;-77
2023/07/12 05:49:11;;;;;;;8.25;2.22;;;;;;;20.51;67.62;99183.34;5029925;28;20061;-77
2023/07/12 05:51:38;;;;;;;5.50;1.98;;;;;;;20.53;67.98;99182.19;5040407;28;20128;-76
2023/07/12 05:54:04;;;;;;;2.92;2.00;;;;;;;20.56;67.85;99187.19;5050025;28;20049;-77
2023/07/12 05:56:31;;;;;;;4.07;1.95;;;;;;;20.61;67.83;99183.19;5049877;28;20076;-76
2023/07/12 06:01:29;;;;;;;4.47;1.90;;;;;;;20.65;67.63;99190.72;5103948;22;20463;-82
2023/07/12 06:03:56;;;;;;;4.32;1.70;;;;;;;20.67;67.24;99186.03;5070011;28;20118;-81
2023/07/12 06:06:23;;;;;;;3.58;1.90;;;;;;;20.69;67.53;99204.59;5069537;28;20054;-80
2023/07/12 06:08:50;;;;;;;3.83;2.00;;;;;;;20.70;67.09;99190.22;5069366;28;20051;-79
2023/07/12 06:11:16;;;;;;;5.82;1.88;;;;;;;20.70;66.92;99191.06;5067623;28;20084;-83
2023/07/12 06:13:43;;;;;;;4.72;2.22;;;;;;;20.69;66.87;99192.06;5052030;28;20524;-80
2023/07/12 06:16:09;;;;;;;3.88;1.92;;;;;;;20.69;67.08;99204.59;5052598;28;20084;-80
2023/07/12 06:18:36;;;;;;;4.05;2.05;;;;;;;20.68;67.51;99206.41;5052993;28;20428;-80
2023/07/12 06:21:08;;;;;;;3.65;2.05;;;;;;;20.67;67.46;99206.63;5053037;28;20091;-80
2023/07/12 06:23:35;;;;;;;5.63;1.80;;;;;;;20.66;67.03;99200.41;5071148;28;20052;-80
2023/07/12 06:26:03;;;;;;;5.18;1.88;;;;;;;20.66;66.97;99205.75;5073217;28;20060;-80
2023/07/12 06:28:29;;;;;;;4.85;1.88;;;;;;;20.63;66.96;99214.09;5073019;28;20052;-78
2023/07/12 06:30:56;;;;;;;5.30;1.95;;;;;;;20.61;67.00;99226.81;5072971;28;20041;-78
2023/07/12 06:33:22;;;;;;;3.00;1.67;;;;;;;20.60;67.02;99225.16;5059234;28;20049;-77
2023/07/12 06:35:49;;;;;;;7.60;2.10;;;;;;;20.58;66.97;99224.47;5052651;28;20055;-80
2023/07/12 06:38:16;;;;;;;4.90;1.90;;;;;;;20.57;67.14;99230.84;5052300;28;20059;-78
2023/07/12 06:40:45;;;;;;;6.68;2.10;;;;;;;20.54;67.19;99226.66;5034902;28;20145;-80
2023/07/12 06:43:12;;;;;;;3.92;2.35;;;;;;;20.56;67.45;99221.97;5043457;28;20663;-80
2023/07/12 06:45:44;;;;;;;4.65;1.80;;;;;;;20.57;67.71;99228.16;5055002;28;20627;-83
2023/07/12 06:48:11;;;;;;;3.88;2.00;;;;;;;20.61;68.18;99231.31;5072452;28;20052;-80
2023/07/12 06:50:39;;;;;;;6.20;2.17;;;;;;;20.66;68.13;99231.66;5072966;28;20084;-80
2023/07/12 06:53:05;;;;;;;5.43;2.15;;;;;;;20.70;68.31;99236.53;5067252;28;20119;-80
2023/07/12 06:55:32;;;;;;;3.83;1.98;;;;;;;20.78;68.46;99235.69;5043172;28;20048;-80
2023/07/12 06:57:58;;;;;;;4.03;2.38;;;;;;;20.87;68.13;99230.31;5060824;28;20062;-79
2023/07/12 07:00:25;;;;;;;4.35;2.42;;;;;;;20.94;68.30;99229.50;5052681;28;20099;-81
2023/07/12 07:02:51;;;;;;;3.85;2.35;;;;;;;21.03;68.36;99245.56;5034843;28;20049;-81
2023/07/12 07:05:18;;;;;;;6.75;2.53;;;;;;;21.11;68.00;99240.19;5072548;28;20087;-79
2023/07/12 07:07:44;;;;;;;4.32;2.70;;;;;;;21.19;67.55;99245.53;5072170;28;20535;-80
2023/07/12 07:10:11;;;;;;;3.92;2.75;;;;;;;21.26;67.00;99236.84;5072228;28;20496;-80
2023/07/12 07:12:37;;;;;;;5.55;3.33;;;;;;;21.31;66.85;99234.50;5072372;28;20128;-80
2023/07/12 07:15:04;;;;;;;6.38;3.08;;;;;;;21.37;66.61;99251.72;5056852;28;20072;-81
2023/07/12 07:17:31;;;;;;;5.55;3.03;;;;;;;21.39;66.33;99250.53;5034235;28;20342;-81
2023/07/12 07:19:57;;;;;;;10.35;3.28;;;;;;;21.41;66.30;99255.72;5052256;28;20107;-80
2023/07/12 07:22:24;;;;;;;6.05;3.08;;;;;;;21.44;66.11;99256.22;5034331;28;20523;-79
2023/07/12 07:24:51;;;;;;;6.05;3.42;;;;;;;21.46;66.55;99261.41;5060967;28;20049;-81
2023/07/12 07:27:17;;;;;;;8.38;4.18;;;;;;;21.49;66.16;99258.38;5071886;28;20127;-80
2023/07/12 07:29:44;;;;;;;5.85;3.10;;;;;;;21.53;66.07;99267.72;5071925;28;20060;-80
2023/07/12 07:32:10;;;;;;;6.70;3.72;;;;;;;21.54;65.35;99268.56;5072118;28;20139;-81
2023/07/12 07:34:37;;;;;;;6.97;4.18;;;;;;;21.54;65.20;99268.56;5067036;28;20060;-79
2023/07/12 07:37:04;;;;;;;6.90;3.80;;;;;;;21.53;65.06;99272.25;5051674;28;20056;-80
2023/07/12 07:39:31;;;;;;;7.25;3.40;;;;;;;21.49;65.33;99269.06;5051899;28;20088;-80
2023/07/12 07:41:58;;;;;;;5.97;3.50;;;;;;;21.47;64.75;99261.25;5034055;28;20555;-80
2023/07/12 07:44:24;;;;;;;7.00;3.65;;;;;;;21.44;64.71;99272.28;5051513;28;20468;-81
2023/07/12 07:46:51;;;;;;;6.82;3.88;;;;;;;21.43;65.11;99264.41;5051387;28;20044;-80
2023/07/12 07:49:17;;;;;;;9.65;3.67;;;;;;;21.40;65.34;99265.59;5051804;28;20160;-80
2023/07/12 07:51:44;;;;;;;5.60;3.47;;;;;;;21.40;65.70;99259.41;5051432;28;20052;-81
2023/07/12 07:54:10;;;;;;;6.75;3.45;;;;;;;21.41;65.77;99266.44;5051619;28;20044;-80
2023/07/12 07:56:37;;;;;;;9.05;3.80;;;;;;;21.43;65.88;99267.94;5066081;28;20053;-80
2023/07/12 07:59:03;;;;;;;7.35;3.15;;;;;;;21.47;66.26;99277.31;5071160;28;20055;-80
2023/07/12 08:01:30;;;;;;;7.10;3.10;;;;;;;21.53;66.23;99286.47;5071388;28;20063;-80
2023/07/12 08:04:11;;;;;;;5.03;3.60;;;;;;;21.63;66.09;99277.44;5071403;28;20131;-79
2023/07/12 08:06:39;;;;;;;5.25;4.10;;;;;;;21.70;66.65;99281.94;5058057;28;20637;-80
2023/07/12 08:09:07;;;;;;;7.03;3.55;;;;;;;21.79;66.17;99284.63;5051072;28;20485;-79
2023/07/12 08:11:34;;;;;;;6.20;4.13;;;;;;;21.86;66.27;99293.59;5051139;28;20055;-80
2023/07/12 08:14:03;;;;;;;6.22;3.67;;;;;;;21.94;65.79;99284.72;5051221;28;20084;-81
2023/07/12 08:16:33;;;;;;;9.52;4.32;;;;;;;22.02;65.96;99281.16;5059263;28;20052;-80
2023/07/12 08:19:00;;;;;;;6.25;4.13;;;;;;;22.11;65.92;99285.47;5070193;28;20044;-80
2023/07/12 08:21:37;;;;;;;9.18;4.20;;;;;;;22.20;65.25;99279.06;5046494;28;20044;-83
2023/07/12 08:24:04;;;;;;;8.63;3.65;;;;;;;22.26;64.52;99289.09;5033159;28;20060;-80
2023/07/12 08:26:30;;;;;;;6.90;3.80;;;;;;;22.31;63.85;99285.88;5056369;28;20064;-81
2023/07/12 08:28:57;;;;;;;7.43;3.40;;;;;;;22.33;63.19;99291.91;5052843;28;20045;-80
2023/07/12 08:31:23;;;;;;;6.25;3.40;;;;;;;22.32;62.87;99295.59;5070692;28;20239;-80
2023/07/12 08:33:51;;;;;;;5.97;3.88;;;;;;;22.28;63.47;99302.34;5070789;28;20061;-81
2023/07/12 08:36:17;;;;;;;7.95;3.85;;;;;;;22.25;62.98;99305.34;5068589;28;20052;-79
2023/07/12 08:38:44;;;;;;;6.38;3.65;;;;;;;22.22;63.24;99311.91;5032619;28;20155;-83
2023/07/12 08:41:15;;;;;;;8.27;3.65;;;;;;;22.17;61.80;99311.59;5050476;28;20056;-79
2023/07/12 08:43:43;;;;;;;7.15;3.38;;;;;;;22.15;62.07;99310.94;5033023;28;20527;-81
2023/07/12 08:46:23;;;;;;;9.63;3.80;;;;;;;22.08;62.64;99307.25;5050488;28;20156;-79
2023/07/12 08:48:53;;;;;;;8.95;3.97;;;;;;;22.10;63.67;99308.75;5036678;28;20098;-78
2023/07/12 08:51:29;;;;;;;9.80;4.18;;;;;;;22.13;61.66;99308.41;5052505;28;20056;-81
2023/07/12 08:53:57;;;;;;;7.45;3.58;;;;;;;22.24;62.58;99307.19;5070720;28;20060;-81
2023/07/12 08:56:24;;;;;;;9.52;4.10;;;;;;;22.32;63.33;99314.34;5069984;28;20052;-80
2023/07/12 08:58:53;;;;;;;7.20;3.90;;;;;;;22.40;62.84;99308.13;5070134;28;20059;-80
2023/07/12 09:01:29;;;;;;;9.40;4.05;;;;;;;22.48;61.70;99317.97;5070629;28;20075;-80
2023/07/12 09:03:55;;;;;;;6.57;3.50;;;;;;;22.59;62.60;99316.75;5052535;28;20661;-81
2023/07/12 09:06:22;;;;;;;9.50;4.25;;;;;;;22.69;61.79;99321.91;5070450;28;20049;-80
2023/07/12 09:08:53;;;;;;;6.95;3.47;;;;;;;22.73;61.19;99320.53;5070092;28;20683;-81
2023/07/12 09:11:29;;;;;;;6.05;3.40;;;;;;;22.71;60.04;99339.50;5035879;28;20070;-80
2023/07/12 09:13:58;;;;;;;11.25;3.55;;;;;;;22.74;60.33;99328.41;5050236;28;20136;-80
2023/07/12 09:16:32;;;;;;;8.57;3.45;;;;;;;22.73;59.93;99332.09;5050324;28;20048;-78
2023/07/12 09:19:23;;;;;;;7.10;3.20;;;;;;;22.71;60.88;99323.41;5050324;28;20100;-81
2023/07/12 09:21:54;;;;;;;5.18;2.80;;;;;;;22.81;61.41;99325.00;5067769;28;20053;-81
2023/07/12 09:24:27;;;;;;;8.77;3.70;;;;;;;22.85;62.06;99332.53;5070148;28;20049;-80
2023/07/12 09:27:05;;;;;;;7.93;3.08;;;;;;;22.89;61.11;99333.00;5070123;28;20127;-78
2023/07/12 09:29:35;;;;;;;7.20;3.42;;;;;;;23.01;61.08;99330.72;5052482;28;20131;-81
2023/07/12 09:32:16;;;;;;;12.27;3.38;;;;;;;23.07;60.27;99334.53;5053247;28;20465;-80
2023/07/12 09:34:46;;;;;;;6.88;3.00;;;;;;;23.17;60.20;99327.06;5049920;28;20072;-83
2023/07/12 09:37:22;;;;;;;5.90;3.10;;;;;;;23.19;58.95;99335.78;5050120;28;20671;-79
2023/07/12 09:40:03;;;;;;;9.75;3.15;;;;;;;23.23;59.02;99334.41;5032613;28;20080;-79
2023/07/12 09:42:30;;;;;;;6.43;3.22;;;;;;;23.31;59.84;99330.81;5066236;28;20059;-80
2023/07/12 09:44:58;;;;;;;9.43;3.60;;;;;;;23.35;59.04;99326.78;5035921;28;20041;-79
2023/07/12 09:47:57;;;;;;;8.65;3.13;;;;;;;23.38;58.97;99330.94;5070322;28;20048;-80
2023/07/12 09:50:35;;;;;;;9.05;3.30;;;;;;;23.53;58.22;99345.25;5073789;28;20057;-79
2023/07/12 09:53:10;;;;;;;9.43;3.10;;;;;;;23.66;59.02;99347.31;5053907;28;20045;-80
2023/07/12 09:56:02;;;;;;;7.22;2.63;;;;;;;23.74;59.08;99334.81;5035600;28;20481;-80
2023/07/12 09:58:41;;;;;;;5.28;2.38;;;;;;;23.86;57.59;99343.25;5053418;28;20052;-79
2023/07/12 10:01:14;;;;;;;7.80;2.90;;;;;;;23.90;57.74;99340.00;5036590;28;20131;-80
2023/07/12 10:03:50;;;;;;;7.35;2.85;;;;;;;23.95;57.01;99352.88;5073584;28;20052;-81
2023/07/12 10:06:42;;;;;;;5.97;2.70;;;;;;;23.90;56.89;99341.84;5073225;28;20542;-79
2023/07/12 10:09:21;;;;;;;10.85;3.08;;;;;;;23.92;56.53;99351.41;5073793;28;20076;-80
2023/07/12 10:11:56;;;;;;;7.05;2.97;;;;;;;23.93;56.31;99358.44;5069560;28;20048;-80
2023/07/12 10:14:31;;;;;;;7.15;2.83;;;;;;;23.95;56.67;99361.78;5035774;28;20409;-79
2023/07/12 10:16:58;;;;;;;8.85;2.83;;;;;;;24.00;57.35;99358.53;5053431;28;20041;-80
2023/07/12 10:19:29;;;;;;;7.75;2.38;;;;;;;24.03;56.18;99360.84;5053416;28;20123;-80
2023/07/12 10:21:59;;;;;;;7.53;2.65;;;;;;;24.08;57.09;99357.63;5037427;28;20055;-80
2023/07/12 10:24:36;;;;;;;4.68;2.28;;;;;;;24.12;55.70;99360.78;5073156;28;20060;-82
2023/07/12 10:27:23;;;;;;;8.60;2.30;;;;;;;24.17;55.08;99371.81;5072770;28;20052;-80
2023/07/12 10:29:57;;;;;;;7.88;2.17;;;;;;;24.19;54.60;99370.59;5055152;28;20562;-80
2023/07/12 10:32:34;;;;;;;7.93;2.13;;;;;;;24.19;55.71;99370.59;5069936;28;20124;-82
2023/07/12 10:35:13;;;;;;;6.05;2.33;;;;;;;24.27;56.21;99369.69;5052981;28;20055;-80
2023/07/12 10:37:45;;;;;;;5.93;2.70;;;;;;;24.39;56.06;99374.56;5052731;28;20080;-81
2023/07/12 10:40:16;;;;;;;7.38;2.42;;;;;;;24.52;54.87;99361.28;5034929;28;20784;-81
2023/07/12 10:42:50;;;;;;;4.38;2.00;;;;;;;24.66;56.44;99372.19;5055741;28;20056;-78
2023/07/12 10:45:43;;;;;;;7.63;2.88;;;;;;;24.76;55.19;99371.91;5072704;28;20114;-79
2023/07/12 10:48:21;;;;;;;6.30;1.77;;;;;;;24.90;54.82;99370.22;5070300;28;20052;-79
2023/07/12 10:50:49;;;;;;;5.95;2.38;;;;;;;24.99;54.26;99366.38;5055333;28;20060;-83
2023/07/12 10:53:22;;;;;;;6.00;2.05;;;;;;;24.98;53.40;99389.75;5067534;28;20073;-81
2023/07/12 10:56:14;;;;;;;4.88;1.92;;;;;;;24.95;53.24;99390.16;5052388;28;20088;-78
2023/07/12 10:58:54;;;;;;;5.53;2.10;;;;;;;24.99;54.65;99382.53;5051899;28;20501;-80
2023/07/12 11:01:42;;;;;;;6.50;2.15;;;;;;;25.23;55.03;99378.63;5052646;28;20061;-80
2023/07/12 11:04:13;;;;;;;4.70;2.35;;;;;;;25.65;54.84;99372.56;5061637;28;20049;-79
2023/07/12 11:07:24;;;;;;;7.68;2.00;;;;;;;26.07;53.69;99380.72;5057871;28;20132;-80
2023/07/12 11:09:54;;;;;;;4.85;2.00;;;;;;;26.61;52.94;99397.16;5034113;28;20465;-80
2023/07/12 11:12:26;;;;;;;4.75;1.88;;;;;;;26.97;53.15;99389.81;5052354;28;20053;-78
2023/07/12 11:15:19;;;;;;;4.88;1.92;;;;;;;27.24;51.53;99386.34;5063719;28;20390;-81
2023/07/12 11:18:03;;;;;;;6.45;1.85;;;;;;;27.41;50.39;99386.75;5071910;28;20086;-81
2023/07/12 11:20:51;;;;;;;5.47;2.00;;;;;;;27.51;49.42;99384.44;5072348;28;20079;-81
2023/07/12 11:23:36;;;;;;;5.97;2.22;;;;;;;27.48;48.93;99386.75;5069669;28;20145;-82
2023/07/12 11:26:20;;;;;;;4.35;1.90;;;;;;;27.52;48.63;99385.28;5070196;28;20095;-80
2023/07/12 11:28:47;;;;;;;4.20;1.88;;;;;;;27.52;48.47;99388.00;5051156;28;20050;-80
2023/07/12 11:31:19;;;;;;;5.38;2.17;;;;;;;27.50;49.07;99384.69;5051992;28;20057;-81
2023/07/12 11:34:16;;;;;;;4.93;1.85;;;;;;;27.49;49.34;99388.41;5034037;28;20049;-81
2023/07/12 11:36:57;;;;;;;4.65;2.03;;;;;;;27.72;49.64;99373.69;5046021;28;20051;-80
2023/07/12 11:39:27;;;;;;;3.28;1.73;;;;;;;28.04;50.67;99390.03;5051828;28;20052;-81
2023/07/12 11:41:55;;;;;;;3.13;1.73;;;;;;;28.43;50.30;99371.19;5051576;28;20160;-79
2023/07/12 11:44:22;;;;;;;6.28;2.47;;;;;;;28.84;49.50;99388.06;5034175;28;20121;-79
2023/07/12 11:46:50;;;;;;;4.95;1.60;;;;;;;29.23;47.91;99377.22;5051650;28;20077;-80
2023/07/12 11:49:30;;;;;;;4.35;1.58;;;;;;;29.61;46.41;99378.19;5051673;28;20049;-82